Terminal Aerodrome Forecast
Issued by NWS Charleston, WV

Current Version | Previous Version | Text Only | Print | Product List | Glossary Off
Versions: 1 2 3 4 5 6 7 8 9 10 11 12 13 14 15 16 17 18 19 20 21 22 23 24

151
FTUS41 KRLX 172335
TAFEKN
TAF
KEKN 172335Z 1800/1824 17007KT 6SM -RA BR OVC035
      TEMPO 1800/1803 3SM -SNPL BR OVC025
     FM180300 25005KT P6SM OVC025
      TEMPO 1803/1807 4SM -RAPLSN BR OVC015
     FM180700 28009G15KT 6SM -SN OVC015
      TEMPO 1807/1809 2SM -SN OVC008
     FM180900 29009G15KT 6SM -FZDZ OVC008
     FM181400 30007KT P6SM BKN015
     FM181600 28004KT P6SM SCT035=

USA.gov is the U.S. government's official web portal to all federal, state and local government web resources and services.